sensor_id;sensor_type;location;lat;lon;timestamp;P1;durP1;ratioP1;P2;durP2;ratioP2
50126;SDS011;36024;47.974;16.398;2024-01-06T00:01:13;20.43;;;17.57;;
50126;SDS011;36024;47.974;16.398;2024-01-06T00:03:42;23.63;;;19.40;;
50126;SDS011;36024;47.974;16.398;2024-01-06T00:06:13;21.87;;;18.10;;
50126;SDS011;36024;47.974;16.398;2024-01-06T00:08:40;22.67;;;18.17;;
50126;SDS011;36024;47.974;16.398;2024-01-06T00:11:08;20.73;;;17.97;;
50126;SDS011;36024;47.974;16.398;2024-01-06T00:13:36;22.77;;;18.80;;
50126;SDS011;36024;47.974;16.398;2024-01-06T00:16:02;21.60;;;17.83;;
50126;SDS011;36024;47.974;16.398;2024-01-06T00:18:29;21.97;;;17.80;;
50126;SDS011;36024;47.974;16.398;2024-01-06T00:20:57;23.40;;;18.90;;
50126;SDS011;36024;47.974;16.398;2024-01-06T00:23:23;21.57;;;18.07;;
50126;SDS011;36024;47.974;16.398;2024-01-06T00:25:50;20.07;;;17.77;;
50126;SDS011;36024;47.974;16.398;2024-01-06T00:28:17;22.10;;;17.73;;
50126;SDS011;36024;47.974;16.398;2024-01-06T00:30:45;22.73;;;18.90;;
50126;SDS011;36024;47.974;16.398;2024-01-06T00:33:12;24.37;;;19.33;;
50126;SDS011;36024;47.974;16.398;2024-01-06T00:35:39;23.60;;;18.43;;
50126;SDS011;36024;47.974;16.398;2024-01-06T00:38:06;22.00;;;19.33;;
50126;SDS011;36024;47.974;16.398;2024-01-06T00:40:33;22.47;;;19.40;;
50126;SDS011;36024;47.974;16.398;2024-01-06T00:43:00;20.40;;;18.20;;
50126;SDS011;36024;47.974;16.398;2024-01-06T00:45:26;23.60;;;18.93;;
50126;SDS011;36024;47.974;16.398;2024-01-06T00:47:53;23.03;;;19.13;;
50126;SDS011;36024;47.974;16.398;2024-01-06T00:50:20;22.03;;;18.33;;
50126;SDS011;36024;47.974;16.398;2024-01-06T00:52:47;23.23;;;19.00;;
50126;SDS011;36024;47.974;16.398;2024-01-06T00:55:14;22.63;;;19.37;;
50126;SDS011;36024;47.974;16.398;2024-01-06T00:57:40;22.33;;;18.60;;
50126;SDS011;36024;47.974;16.398;2024-01-06T01:00:07;23.53;;;18.70;;
50126;SDS011;36024;47.974;16.398;2024-01-06T01:02:34;23.27;;;18.13;;
50126;SDS011;36024;47.974;16.398;2024-01-06T01:05:05;24.00;;;19.03;;
50126;SDS011;36024;47.974;16.398;2024-01-06T01:07:35;22.43;;;18.50;;
50126;SDS011;36024;47.974;16.398;2024-01-06T01:10:02;21.50;;;19.13;;
50126;SDS011;36024;47.974;16.398;2024-01-06T01:12:31;24.13;;;19.63;;
50126;SDS011;36024;47.974;16.398;2024-01-06T01:14:58;23.37;;;19.40;;
50126;SDS011;36024;47.974;16.398;2024-01-06T01:17:25;21.27;;;18.83;;
50126;SDS011;36024;47.974;16.398;2024-01-06T01:19:51;20.80;;;18.23;;
50126;SDS011;36024;47.974;16.398;2024-01-06T01:22:18;26.50;;;19.30;;
50126;SDS011;36024;47.974;16.398;2024-01-06T01:24:45;25.87;;;19.23;;
50126;SDS011;36024;47.974;16.398;2024-01-06T01:27:12;22.20;;;19.67;;
50126;SDS011;36024;47.974;16.398;2024-01-06T01:29:38;23.73;;;19.43;;
50126;SDS011;36024;47.974;16.398;2024-01-06T01:32:05;23.77;;;20.07;;
50126;SDS011;36024;47.974;16.398;2024-01-06T01:34:32;22.70;;;19.30;;
50126;SDS011;36024;47.974;16.398;2024-01-06T01:36:59;23.27;;;19.23;;
50126;SDS011;36024;47.974;16.398;2024-01-06T01:39:26;23.57;;;20.00;;
50126;SDS011;36024;47.974;16.398;2024-01-06T01:41:54;23.73;;;19.93;;
50126;SDS011;36024;47.974;16.398;2024-01-06T01:44:21;27.80;;;20.97;;
50126;SDS011;36024;47.974;16.398;2024-01-06T01:46:48;23.93;;;20.17;;
50126;SDS011;36024;47.974;16.398;2024-01-06T01:49:15;25.23;;;21.33;;
50126;SDS011;36024;47.974;16.398;2024-01-06T01:51:42;24.07;;;21.10;;
50126;SDS011;36024;47.974;16.398;2024-01-06T01:54:10;21.63;;;19.33;;
50126;SDS011;36024;47.974;16.398;2024-01-06T01:56:37;25.60;;;20.70;;
50126;SDS011;36024;47.974;16.398;2024-01-06T01:59:07;24.27;;;19.80;;
50126;SDS011;36024;47.974;16.398;2024-01-06T02:01:37;23.57;;;19.87;;
50126;SDS011;36024;47.974;16.398;2024-01-06T02:04:06;23.53;;;20.50;;
50126;SDS011;36024;47.974;16.398;2024-01-06T02:06:34;24.23;;;20.97;;
50126;SDS011;36024;47.974;16.398;2024-01-06T02:09:01;24.73;;;19.87;;
50126;SDS011;36024;47.974;16.398;2024-01-06T02:11:28;26.77;;;21.50;;
50126;SDS011;36024;47.974;16.398;2024-01-06T02:13:55;26.07;;;21.67;;
50126;SDS011;36024;47.974;16.398;2024-01-06T02:16:22;27.03;;;21.33;;
50126;SDS011;36024;47.974;16.398;2024-01-06T02:18:48;24.63;;;20.50;;
50126;SDS011;36024;47.974;16.398;2024-01-06T02:21:16;26.10;;;21.53;;
50126;SDS011;36024;47.974;16.398;2024-01-06T02:23:44;27.30;;;21.83;;
50126;SDS011;36024;47.974;16.398;2024-01-06T02:26:11;27.70;;;20.97;;
50126;SDS011;36024;47.974;16.398;2024-01-06T02:28:38;27.37;;;21.27;;
50126;SDS011;36024;47.974;16.398;2024-01-06T02:31:05;24.90;;;20.23;;
50126;SDS011;36024;47.974;16.398;2024-01-06T02:33:31;27.10;;;22.03;;
50126;SDS011;36024;47.974;16.398;2024-01-06T02:35:58;29.03;;;23.00;;
50126;SDS011;36024;47.974;16.398;2024-01-06T02:38:25;26.30;;;22.17;;
50126;SDS011;36024;47.974;16.398;2024-01-06T02:40:52;25.77;;;22.67;;
50126;SDS011;36024;47.974;16.398;2024-01-06T02:43:19;28.97;;;22.90;;
50126;SDS011;36024;47.974;16.398;2024-01-06T02:45:45;25.57;;;22.17;;
50126;SDS011;36024;47.974;16.398;2024-01-06T02:48:13;28.87;;;23.20;;
50126;SDS011;36024;47.974;16.398;2024-01-06T02:50:40;28.47;;;23.47;;
50126;SDS011;36024;47.974;16.398;2024-01-06T02:53:07;28.80;;;23.83;;
50126;SDS011;36024;47.974;16.398;2024-01-06T02:55:36;30.13;;;23.00;;
50126;SDS011;36024;47.974;16.398;2024-01-06T02:58:02;25.53;;;22.53;;
50126;SDS011;36024;47.974;16.398;2024-01-06T03:00:29;26.73;;;22.80;;
50126;SDS011;36024;47.974;16.398;2024-01-06T03:02:56;27.20;;;22.20;;
50126;SDS011;36024;47.974;16.398;2024-01-06T03:05:23;30.90;;;23.77;;
50126;SDS011;36024;47.974;16.398;2024-01-06T03:07:50;28.60;;;22.57;;
50126;SDS011;36024;47.974;16.398;2024-01-06T03:10:16;27.73;;;22.97;;
50126;SDS011;36024;47.974;16.398;2024-01-06T03:12:43;26.90;;;22.20;;
50126;SDS011;36024;47.974;16.398;2024-01-06T03:15:10;25.60;;;22.60;;
50126;SDS011;36024;47.974;16.398;2024-01-06T03:17:37;29.77;;;22.80;;
50126;SDS011;36024;47.974;16.398;2024-01-06T03:20:04;32.37;;;24.67;;
50126;SDS011;36024;47.974;16.398;2024-01-06T03:22:32;27.20;;;23.93;;
50126;SDS011;36024;47.974;16.398;2024-01-06T03:25:00;29.97;;;24.17;;
50126;SDS011;36024;47.974;16.398;2024-01-06T03:27:27;31.63;;;24.70;;
50126;SDS011;36024;47.974;16.398;2024-01-06T03:29:54;30.67;;;23.57;;
50126;SDS011;36024;47.974;16.398;2024-01-06T03:32:21;32.00;;;24.30;;
50126;SDS011;36024;47.974;16.398;2024-01-06T03:34:48;30.83;;;25.30;;
50126;SDS011;36024;47.974;16.398;2024-01-06T03:37:15;30.13;;;25.47;;
50126;SDS011;36024;47.974;16.398;2024-01-06T03:39:41;30.40;;;25.17;;
50126;SDS011;36024;47.974;16.398;2024-01-06T03:42:08;34.30;;;26.10;;
50126;SDS011;36024;47.974;16.398;2024-01-06T03:44:35;34.67;;;26.43;;
50126;SDS011;36024;47.974;16.398;2024-01-06T03:47:02;32.27;;;25.87;;
50126;SDS011;36024;47.974;16.398;2024-01-06T03:49:28;33.23;;;25.60;;
50126;SDS011;36024;47.974;16.398;2024-01-06T03:51:55;31.30;;;25.53;;
50126;SDS011;36024;47.974;16.398;2024-01-06T03:54:22;32.10;;;26.30;;
50126;SDS011;36024;47.974;16.398;2024-01-06T03:56:49;32.50;;;24.97;;
50126;SDS011;36024;47.974;16.398;2024-01-06T03:59:16;31.70;;;25.63;;
50126;SDS011;36024;47.974;16.398;2024-01-06T04:01:43;33.37;;;25.97;;
50126;SDS011;36024;47.974;16.398;2024-01-06T04:04:10;32.07;;;26.30;;
50126;SDS011;36024;47.974;16.398;2024-01-06T04:06:37;32.73;;;26.57;;
50126;SDS011;36024;47.974;16.398;2024-01-06T04:09:03;32.77;;;27.47;;
50126;SDS011;36024;47.974;16.398;2024-01-06T04:11:31;32.57;;;26.63;;
50126;SDS011;36024;47.974;16.398;2024-01-06T04:13:58;35.53;;;28.13;;
50126;SDS011;36024;47.974;16.398;2024-01-06T04:16:25;32.17;;;27.63;;
50126;SDS011;36024;47.974;16.398;2024-01-06T04:18:53;32.33;;;26.93;;
50126;SDS011;36024;47.974;16.398;2024-01-06T04:21:21;35.20;;;28.47;;
50126;SDS011;36024;47.974;16.398;2024-01-06T04:23:49;32.60;;;27.90;;
50126;SDS011;36024;47.974;16.398;2024-01-06T04:26:15;36.27;;;27.27;;
50126;SDS011;36024;47.974;16.398;2024-01-06T04:28:42;33.03;;;27.83;;
50126;SDS011;36024;47.974;16.398;2024-01-06T04:31:09;35.23;;;27.90;;
50126;SDS011;36024;47.974;16.398;2024-01-06T04:33:37;36.90;;;28.27;;
50126;SDS011;36024;47.974;16.398;2024-01-06T04:36:06;33.60;;;27.87;;
50126;SDS011;36024;47.974;16.398;2024-01-06T04:38:33;33.87;;;27.77;;
50126;SDS011;36024;47.974;16.398;2024-01-06T04:41:00;35.40;;;27.20;;
50126;SDS011;36024;47.974;16.398;2024-01-06T04:43:27;36.37;;;28.03;;
50126;SDS011;36024;47.974;16.398;2024-01-06T04:45:54;34.53;;;27.80;;
50126;SDS011;36024;47.974;16.398;2024-01-06T04:48:20;33.87;;;27.80;;
50126;SDS011;36024;47.974;16.398;2024-01-06T04:50:49;35.67;;;28.47;;
50126;SDS011;36024;47.974;16.398;2024-01-06T04:53:15;34.47;;;28.37;;
50126;SDS011;36024;47.974;16.398;2024-01-06T04:55:42;35.47;;;29.40;;
50126;SDS011;36024;47.974;16.398;2024-01-06T04:58:09;35.80;;;28.33;;
50126;SDS011;36024;47.974;16.398;2024-01-06T05:00:36;35.07;;;30.30;;
50126;SDS011;36024;47.974;16.398;2024-01-06T05:03:03;36.63;;;28.70;;
50126;SDS011;36024;47.974;16.398;2024-01-06T05:05:30;36.10;;;28.77;;
50126;SDS011;36024;47.974;16.398;2024-01-06T05:07:57;34.60;;;29.27;;
50126;SDS011;36024;47.974;16.398;2024-01-06T05:10:24;36.27;;;29.87;;
50126;SDS011;36024;47.974;16.398;2024-01-06T05:12:51;36.37;;;29.60;;
50126;SDS011;36024;47.974;16.398;2024-01-06T05:15:18;38.63;;;29.07;;
50126;SDS011;36024;47.974;16.398;2024-01-06T05:17:45;34.73;;;28.97;;
50126;SDS011;36024;47.974;16.398;2024-01-06T05:20:11;36.13;;;29.50;;
50126;SDS011;36024;47.974;16.398;2024-01-06T05:22:38;34.50;;;28.80;;
50126;SDS011;36024;47.974;16.398;2024-01-06T05:25:05;38.03;;;29.83;;
50126;SDS011;36024;47.974;16.398;2024-01-06T05:27:32;35.57;;;29.60;;
50126;SDS011;36024;47.974;16.398;2024-01-06T05:29:59;35.97;;;29.40;;
50126;SDS011;36024;47.974;16.398;2024-01-06T05:32:25;36.07;;;28.57;;
50126;SDS011;36024;47.974;16.398;2024-01-06T05:34:52;35.53;;;29.00;;
50126;SDS011;36024;47.974;16.398;2024-01-06T05:37:19;39.03;;;30.07;;
50126;SDS011;36024;47.974;16.398;2024-01-06T05:39:46;36.13;;;29.40;;
50126;SDS011;36024;47.974;16.398;2024-01-06T05:42:13;35.77;;;28.63;;
50126;SDS011;36024;47.974;16.398;2024-01-06T05:44:41;37.80;;;28.47;;
50126;SDS011;36024;47.974;16.398;2024-01-06T05:47:08;40.00;;;29.17;;
50126;SDS011;36024;47.974;16.398;2024-01-06T05:49:35;39.10;;;29.97;;
50126;SDS011;36024;47.974;16.398;2024-01-06T05:52:02;36.07;;;28.63;;
50126;SDS011;36024;47.974;16.398;2024-01-06T05:54:29;36.77;;;28.17;;
50126;SDS011;36024;47.974;16.398;2024-01-06T05:56:55;36.47;;;29.10;;
50126;SDS011;36024;47.974;16.398;2024-01-06T05:59:22;34.63;;;28.17;;
50126;SDS011;36024;47.974;16.398;2024-01-06T06:01:49;36.73;;;28.90;;
50126;SDS011;36024;47.974;16.398;2024-01-06T06:04:16;35.80;;;27.97;;
50126;SDS011;36024;47.974;16.398;2024-01-06T06:06:43;36.87;;;29.67;;
50126;SDS011;36024;47.974;16.398;2024-01-06T06:09:09;39.23;;;30.33;;
50126;SDS011;36024;47.974;16.398;2024-01-06T06:11:36;37.47;;;29.73;;
50126;SDS011;36024;47.974;16.398;2024-01-06T06:14:03;38.00;;;27.63;;
50126;SDS011;36024;47.974;16.398;2024-01-06T06:16:33;36.83;;;29.23;;
50126;SDS011;36024;47.974;16.398;2024-01-06T06:18:59;35.93;;;28.30;;
50126;SDS011;36024;47.974;16.398;2024-01-06T06:21:27;34.93;;;26.60;;
50126;SDS011;36024;47.974;16.398;2024-01-06T06:23:54;36.17;;;28.33;;
50126;SDS011;36024;47.974;16.398;2024-01-06T06:26:21;33.83;;;26.03;;
50126;SDS011;36024;47.974;16.398;2024-01-06T06:28:48;33.40;;;25.93;;
50126;SDS011;36024;47.974;16.398;2024-01-06T06:31:15;34.50;;;25.90;;
50126;SDS011;36024;47.974;16.398;2024-01-06T06:33:41;33.87;;;27.37;;
50126;SDS011;36024;47.974;16.398;2024-01-06T06:36:09;35.23;;;27.67;;
50126;SDS011;36024;47.974;16.398;2024-01-06T06:38:36;35.43;;;26.57;;
50126;SDS011;36024;47.974;16.398;2024-01-06T06:41:03;34.10;;;27.13;;
50126;SDS011;36024;47.974;16.398;2024-01-06T06:43:30;35.07;;;27.27;;
50126;SDS011;36024;47.974;16.398;2024-01-06T06:45:57;36.07;;;27.50;;
50126;SDS011;36024;47.974;16.398;2024-01-06T06:48:24;33.27;;;27.23;;
50126;SDS011;36024;47.974;16.398;2024-01-06T06:50:50;35.07;;;27.50;;
50126;SDS011;36024;47.974;16.398;2024-01-06T06:53:17;35.03;;;27.43;;
50126;SDS011;36024;47.974;16.398;2024-01-06T06:55:44;33.27;;;27.07;;
50126;SDS011;36024;47.974;16.398;2024-01-06T06:58:11;34.73;;;27.80;;
50126;SDS011;36024;47.974;16.398;2024-01-06T07:00:38;32.53;;;26.77;;
50126;SDS011;36024;47.974;16.398;2024-01-06T07:03:05;33.20;;;26.27;;
50126;SDS011;36024;47.974;16.398;2024-01-06T07:05:32;32.33;;;26.20;;
50126;SDS011;36024;47.974;16.398;2024-01-06T07:08:00;34.03;;;25.67;;
50126;SDS011;36024;47.974;16.398;2024-01-06T07:10:27;30.30;;;25.30;;
50126;SDS011;36024;47.974;16.398;2024-01-06T07:12:54;32.10;;;26.30;;
50126;SDS011;36024;47.974;16.398;2024-01-06T07:15:20;32.57;;;26.13;;
50126;SDS011;36024;47.974;16.398;2024-01-06T07:17:48;31.77;;;26.13;;
50126;SDS011;36024;47.974;16.398;2024-01-06T07:20:15;30.17;;;25.40;;
50126;SDS011;36024;47.974;16.398;2024-01-06T07:22:42;30.00;;;24.47;;
50126;SDS011;36024;47.974;16.398;2024-01-06T07:25:11;28.10;;;23.87;;
50126;SDS011;36024;47.974;16.398;2024-01-06T07:27:38;28.73;;;23.17;;
50126;SDS011;36024;47.974;16.398;2024-01-06T07:30:05;29.70;;;24.00;;
50126;SDS011;36024;47.974;16.398;2024-01-06T07:32:34;27.53;;;23.23;;
50126;SDS011;36024;47.974;16.398;2024-01-06T07:35:01;29.67;;;22.80;;
50126;SDS011;36024;47.974;16.398;2024-01-06T07:37:33;28.97;;;23.13;;
50126;SDS011;36024;47.974;16.398;2024-01-06T07:40:00;29.67;;;23.17;;
50126;SDS011;36024;47.974;16.398;2024-01-06T07:42:26;27.90;;;22.97;;
50126;SDS011;36024;47.974;16.398;2024-01-06T07:44:53;29.97;;;23.57;;
50126;SDS011;36024;47.974;16.398;2024-01-06T07:47:20;27.10;;;22.50;;
50126;SDS011;36024;47.974;16.398;2024-01-06T07:49:47;27.40;;;23.07;;
50126;SDS011;36024;47.974;16.398;2024-01-06T07:52:14;27.90;;;22.77;;
50126;SDS011;36024;47.974;16.398;2024-01-06T07:54:41;26.23;;;22.70;;
50126;SDS011;36024;47.974;16.398;2024-01-06T07:57:08;27.20;;;22.57;;
50126;SDS011;36024;47.974;16.398;2024-01-06T07:59:35;26.53;;;22.50;;
50126;SDS011;36024;47.974;16.398;2024-01-06T08:02:02;26.50;;;22.37;;
50126;SDS011;36024;47.974;16.398;2024-01-06T08:04:28;29.10;;;23.37;;
50126;SDS011;36024;47.974;16.398;2024-01-06T08:06:55;29.43;;;23.33;;
50126;SDS011;36024;47.974;16.398;2024-01-06T08:09:22;26.40;;;22.43;;
50126;SDS011;36024;47.974;16.398;2024-01-06T08:11:50;27.40;;;22.67;;
50126;SDS011;36024;47.974;16.398;2024-01-06T08:14:16;27.73;;;23.17;;
50126;SDS011;36024;47.974;16.398;2024-01-06T08:16:44;28.00;;;22.77;;
50126;SDS011;36024;47.974;16.398;2024-01-06T08:19:10;28.87;;;23.17;;
50126;SDS011;36024;47.974;16.398;2024-01-06T08:21:37;25.93;;;21.90;;
50126;SDS011;36024;47.974;16.398;2024-01-06T08:24:04;29.10;;;22.73;;
50126;SDS011;36024;47.974;16.398;2024-01-06T08:26:31;25.77;;;21.73;;
50126;SDS011;36024;47.974;16.398;2024-01-06T08:28:58;28.93;;;23.50;;
50126;SDS011;36024;47.974;16.398;2024-01-06T08:31:25;27.80;;;21.90;;
50126;SDS011;36024;47.974;16.398;2024-01-06T08:33:52;28.03;;;22.63;;
50126;SDS011;36024;47.974;16.398;2024-01-06T08:36:19;28.60;;;22.63;;
50126;SDS011;36024;47.974;16.398;2024-01-06T08:38:46;26.23;;;21.77;;
50126;SDS011;36024;47.974;16.398;2024-01-06T08:41:12;27.53;;;21.77;;
50126;SDS011;36024;47.974;16.398;2024-01-06T08:43:39;29.30;;;22.17;;
50126;SDS011;36024;47.974;16.398;2024-01-06T08:46:06;27.73;;;22.13;;
50126;SDS011;36024;47.974;16.398;2024-01-06T08:48:33;28.07;;;22.10;;
50126;SDS011;36024;47.974;16.398;2024-01-06T08:51:01;29.43;;;22.90;;
50126;SDS011;36024;47.974;16.398;2024-01-06T08:53:28;26.70;;;21.70;;
50126;SDS011;36024;47.974;16.398;2024-01-06T08:55:55;27.37;;;22.83;;
50126;SDS011;36024;47.974;16.398;2024-01-06T08:58:22;26.77;;;21.27;;
50126;SDS011;36024;47.974;16.398;2024-01-06T09:00:49;28.30;;;21.80;;
50126;SDS011;36024;47.974;16.398;2024-01-06T09:03:16;25.30;;;20.53;;
50126;SDS011;36024;47.974;16.398;2024-01-06T09:05:44;27.20;;;21.83;;
50126;SDS011;36024;47.974;16.398;2024-01-06T09:08:11;25.37;;;20.97;;
50126;SDS011;36024;47.974;16.398;2024-01-06T09:10:38;27.10;;;21.10;;
50126;SDS011;36024;47.974;16.398;2024-01-06T09:13:05;26.97;;;20.50;;
50126;SDS011;36024;47.974;16.398;2024-01-06T09:15:31;27.13;;;20.83;;
50126;SDS011;36024;47.974;16.398;2024-01-06T09:17:58;23.50;;;20.10;;
50126;SDS011;36024;47.974;16.398;2024-01-06T09:20:25;25.00;;;20.93;;
50126;SDS011;36024;47.974;16.398;2024-01-06T09:22:53;25.27;;;20.90;;
50126;SDS011;36024;47.974;16.398;2024-01-06T09:25:20;25.23;;;20.67;;
50126;SDS011;36024;47.974;16.398;2024-01-06T09:27:50;25.17;;;20.47;;
50126;SDS011;36024;47.974;16.398;2024-01-06T09:30:19;24.53;;;19.60;;
50126;SDS011;36024;47.974;16.398;2024-01-06T09:32:47;25.10;;;20.00;;
50126;SDS011;36024;47.974;16.398;2024-01-06T09:35:13;28.20;;;21.60;;
50126;SDS011;36024;47.974;16.398;2024-01-06T09:37:41;26.23;;;20.73;;
50126;SDS011;36024;47.974;16.398;2024-01-06T09:40:09;25.47;;;20.87;;
50126;SDS011;36024;47.974;16.398;2024-01-06T09:42:40;24.50;;;20.10;;
50126;SDS011;36024;47.974;16.398;2024-01-06T09:45:07;24.93;;;19.70;;
50126;SDS011;36024;47.974;16.398;2024-01-06T09:47:34;25.97;;;20.37;;
50126;SDS011;36024;47.974;16.398;2024-01-06T09:50:02;22.10;;;18.43;;
50126;SDS011;36024;47.974;16.398;2024-01-06T09:52:32;20.60;;;17.20;;
50126;SDS011;36024;47.974;16.398;2024-01-06T09:54:59;18.20;;;15.40;;
50126;SDS011;36024;47.974;16.398;2024-01-06T09:57:26;15.07;;;13.43;;
50126;SDS011;36024;47.974;16.398;2024-01-06T09:59:53;16.60;;;14.07;;
50126;SDS011;36024;47.974;16.398;2024-01-06T10:02:21;13.87;;;12.43;;
50126;SDS011;36024;47.974;16.398;2024-01-06T10:04:49;13.50;;;11.93;;
50126;SDS011;36024;47.974;16.398;2024-01-06T10:07:16;12.50;;;11.30;;
50126;SDS011;36024;47.974;16.398;2024-01-06T10:09:43;12.83;;;11.47;;
50126;SDS011;36024;47.974;16.398;2024-01-06T10:12:10;12.37;;;10.20;;
50126;SDS011;36024;47.974;16.398;2024-01-06T10:14:37;11.37;;;10.17;;
50126;SDS011;36024;47.974;16.398;2024-01-06T10:17:07;11.17;;;10.07;;
50126;SDS011;36024;47.974;16.398;2024-01-06T10:19:34;10.57;;;9.47;;
50126;SDS011;36024;47.974;16.398;2024-01-06T10:22:03;10.37;;;9.37;;
50126;SDS011;36024;47.974;16.398;2024-01-06T10:24:29;10.73;;;9.63;;
50126;SDS011;36024;47.974;16.398;2024-01-06T10:26:58;11.33;;;10.10;;
50126;SDS011;36024;47.974;16.398;2024-01-06T10:29:25;10.80;;;9.73;;
50126;SDS011;36024;47.974;16.398;2024-01-06T10:31:53;10.57;;;9.43;;
50126;SDS011;36024;47.974;16.398;2024-01-06T10:34:22;9.83;;;8.83;;
50126;SDS011;36024;47.974;16.398;2024-01-06T10:36:49;9.53;;;8.53;;
50126;SDS011;36024;47.974;16.398;2024-01-06T10:39:19;9.00;;;8.10;;
50126;SDS011;36024;47.974;16.398;2024-01-06T10:41:48;9.47;;;8.47;;
50126;SDS011;36024;47.974;16.398;2024-01-06T10:44:15;8.47;;;7.67;;
50126;SDS011;36024;47.974;16.398;2024-01-06T10:46:42;8.43;;;7.60;;
50126;SDS011;36024;47.974;16.398;2024-01-06T10:49:10;8.33;;;7.53;;
50126;SDS011;36024;47.974;16.398;2024-01-06T10:51:38;7.73;;;7.03;;
50126;SDS011;36024;47.974;16.398;2024-01-06T10:54:05;7.07;;;5.90;;
50126;SDS011;36024;47.974;16.398;2024-01-06T10:56:38;7.63;;;6.83;;
50126;SDS011;36024;47.974;16.398;2024-01-06T10:59:05;7.00;;;6.00;;
50126;SDS011;36024;47.974;16.398;2024-01-06T11:01:34;6.87;;;6.17;;
50126;SDS011;36024;47.974;16.398;2024-01-06T11:04:02;8.00;;;7.17;;
50126;SDS011;36024;47.974;16.398;2024-01-06T11:06:31;7.60;;;6.73;;
50126;SDS011;36024;47.974;16.398;2024-01-06T11:09:04;7.10;;;6.40;;
50126;SDS011;36024;47.974;16.398;2024-01-06T11:11:35;5.60;;;5.10;;
50126;SDS011;36024;47.974;16.398;2024-01-06T11:16:51;4.30;;;3.87;;
50126;SDS011;36024;47.974;16.398;2024-01-06T11:24:48;4.70;;;3.90;;
50126;SDS011;36024;47.974;16.398;2024-01-06T11:27:17;3.80;;;3.47;;
50126;SDS011;36024;47.974;16.398;2024-01-06T11:29:45;4.20;;;3.80;;
50126;SDS011;36024;47.974;16.398;2024-01-06T11:32:25;3.90;;;3.50;;
50126;SDS011;36024;47.974;16.398;2024-01-06T11:34:54;3.50;;;3.20;;
50126;SDS011;36024;47.974;16.398;2024-01-06T11:37:37;4.00;;;3.60;;
50126;SDS011;36024;47.974;16.398;2024-01-06T11:42:48;2.90;;;2.50;;
50126;SDS011;36024;47.974;16.398;2024-01-06T11:45:26;2.77;;;2.50;;
50126;SDS011;36024;47.974;16.398;2024-01-06T11:47:54;3.23;;;2.93;;
50126;SDS011;36024;47.974;16.398;2024-01-06T11:50:26;2.77;;;2.57;;
50126;SDS011;36024;47.974;16.398;2024-01-06T11:52:53;2.80;;;2.60;;
50126;SDS011;36024;47.974;16.398;2024-01-06T11:55:21;2.70;;;2.50;;
50126;SDS011;36024;47.974;16.398;2024-01-06T11:57:48;3.07;;;2.87;;
50126;SDS011;36024;47.974;16.398;2024-01-06T12:00:16;2.87;;;2.67;;
50126;SDS011;36024;47.974;16.398;2024-01-06T12:02:44;2.87;;;2.67;;
50126;SDS011;36024;47.974;16.398;2024-01-06T12:05:15;2.63;;;2.43;;
50126;SDS011;36024;47.974;16.398;2024-01-06T12:07:54;2.70;;;2.50;;
50126;SDS011;36024;47.974;16.398;2024-01-06T12:10:25;2.90;;;2.70;;
50126;SDS011;36024;47.974;16.398;2024-01-06T12:12:56;2.70;;;2.50;;
50126;SDS011;36024;47.974;16.398;2024-01-06T12:15:27;2.70;;;2.50;;
50126;SDS011;36024;47.974;16.398;2024-01-06T12:17:56;2.50;;;2.30;;
50126;SDS011;36024;47.974;16.398;2024-01-06T12:20:23;2.70;;;2.50;;
50126;SDS011;36024;47.974;16.398;2024-01-06T12:22:54;3.13;;;2.90;;
50126;SDS011;36024;47.974;16.398;2024-01-06T12:25:21;2.43;;;2.23;;
50126;SDS011;36024;47.974;16.398;2024-01-06T12:27:49;2.53;;;2.33;;
50126;SDS011;36024;47.974;16.398;2024-01-06T12:30:17;3.03;;;2.73;;
50126;SDS011;36024;47.974;16.398;2024-01-06T12:32:48;3.37;;;3.07;;
50126;SDS011;36024;47.974;16.398;2024-01-06T12:35:16;3.90;;;3.50;;
50126;SDS011;36024;47.974;16.398;2024-01-06T12:37:43;3.93;;;3.63;;
50126;SDS011;36024;47.974;16.398;2024-01-06T12:40:13;3.60;;;3.30;;
50126;SDS011;36024;47.974;16.398;2024-01-06T12:42:44;4.47;;;4.07;;
50126;SDS011;36024;47.974;16.398;2024-01-06T12:45:11;3.17;;;2.90;;
50126;SDS011;36024;47.974;16.398;2024-01-06T12:47:39;2.60;;;2.40;;
50126;SDS011;36024;47.974;16.398;2024-01-06T12:50:07;5.40;;;4.03;;
50126;SDS011;36024;47.974;16.398;2024-01-06T12:52:35;5.20;;;4.70;;
50126;SDS011;36024;47.974;16.398;2024-01-06T12:55:02;3.63;;;3.33;;
50126;SDS011;36024;47.974;16.398;2024-01-06T12:57:30;3.10;;;2.80;;
50126;SDS011;36024;47.974;16.398;2024-01-06T12:59:57;3.50;;;3.20;;
50126;SDS011;36024;47.974;16.398;2024-01-06T13:02:24;4.07;;;3.67;;
50126;SDS011;36024;47.974;16.398;2024-01-06T13:04:51;3.70;;;3.20;;
50126;SDS011;36024;47.974;16.398;2024-01-06T13:07:18;2.90;;;2.60;;
50126;SDS011;36024;47.974;16.398;2024-01-06T13:09:44;2.50;;;2.30;;
50126;SDS011;36024;47.974;16.398;2024-01-06T13:12:11;2.30;;;2.07;;
50126;SDS011;36024;47.974;16.398;2024-01-06T13:14:38;2.10;;;1.90;;
50126;SDS011;36024;47.974;16.398;2024-01-06T13:17:05;1.90;;;1.80;;
50126;SDS011;36024;47.974;16.398;2024-01-06T13:19:32;3.40;;;2.70;;
50126;SDS011;36024;47.974;16.398;2024-01-06T13:22:00;3.87;;;3.30;;
50126;SDS011;36024;47.974;16.398;2024-01-06T13:24:27;6.93;;;5.43;;
50126;SDS011;36024;47.974;16.398;2024-01-06T13:26:55;4.90;;;4.03;;
50126;SDS011;36024;47.974;16.398;2024-01-06T13:29:22;4.23;;;3.70;;
50126;SDS011;36024;47.974;16.398;2024-01-06T13:31:49;3.17;;;2.87;;
50126;SDS011;36024;47.974;16.398;2024-01-06T13:34:16;2.20;;;2.03;;
50126;SDS011;36024;47.974;16.398;2024-01-06T13:36:44;3.37;;;2.80;;
50126;SDS011;36024;47.974;16.398;2024-01-06T13:39:13;2.00;;;1.90;;
50126;SDS011;36024;47.974;16.398;2024-01-06T13:41:47;2.53;;;2.33;;
50126;SDS011;36024;47.974;16.398;2024-01-06T13:44:14;2.00;;;1.80;;
50126;SDS011;36024;47.974;16.398;2024-01-06T13:46:41;2.10;;;1.90;;
50126;SDS011;36024;47.974;16.398;2024-01-06T13:49:11;2.20;;;2.00;;
50126;SDS011;36024;47.974;16.398;2024-01-06T13:51:41;2.30;;;2.10;;
50126;SDS011;36024;47.974;16.398;2024-01-06T13:54:09;1.90;;;1.80;;
50126;SDS011;36024;47.974;16.398;2024-01-06T13:56:37;2.10;;;1.93;;
50126;SDS011;36024;47.974;16.398;2024-01-06T13:59:04;2.20;;;2.00;;
50126;SDS011;36024;47.974;16.398;2024-01-06T14:01:31;2.50;;;2.30;;
50126;SDS011;36024;47.974;16.398;2024-01-06T14:03:58;2.67;;;2.47;;
50126;SDS011;36024;47.974;16.398;2024-01-06T14:06:26;2.53;;;2.33;;
50126;SDS011;36024;47.974;16.398;2024-01-06T14:08:57;2.23;;;2.10;;
50126;SDS011;36024;47.974;16.398;2024-01-06T14:11:24;2.43;;;2.27;;
50126;SDS011;36024;47.974;16.398;2024-01-06T14:13:52;2.77;;;2.57;;
50126;SDS011;36024;47.974;16.398;2024-01-06T14:16:19;2.30;;;2.20;;
50126;SDS011;36024;47.974;16.398;2024-01-06T14:18:47;2.90;;;2.70;;
50126;SDS011;36024;47.974;16.398;2024-01-06T14:21:14;2.70;;;2.37;;
50126;SDS011;36024;47.974;16.398;2024-01-06T14:23:42;3.40;;;2.60;;
50126;SDS011;36024;47.974;16.398;2024-01-06T14:26:08;2.50;;;2.30;;
50126;SDS011;36024;47.974;16.398;2024-01-06T14:28:35;2.60;;;2.40;;